LRSBLBBG

Guest
Details From LRSB - SIBIU
To LBBG - Burgas
Flight Number -
Tags generated
Created
Modified
Stats Distance 243 nm / 451 km
Max Altitude 29,000 ft / 8,839 m
Waypoints 4
Social Downloads 1
Likes 0
Share VATSIM

Download

Looking for another format? Having issues loading an existing format? Contact us
Advertisement - Login to hide

Notes

Basic altitude profile: - Ascent Rate: 2500ft/min - Ascent Speed: 250kts - Cruise Altitude: 35000ft - Cruise Speed: 420kts - Descent Rate: 1500ft/min - Descent Speed: 250kts Options: - Use NATs: yes - Use PACOTS: yes - Use low airways: yes - Use high airways: yes

Route

LRSB FLR UL622 KOMAN LBBG

ID Type Via Altitude Latitude Longitude Leg Dist Tot Dist Heading (true) Name
O LRSB APT - 0 ft / 0 m 45.78560˚ 24.09134˚ - 0 nm - SIBIU
FLR VOR - 29,000 ft / 8,839 m 44.50083˚ 25.70817˚ 103 nm 103 nm 138° / 139° FLORESTI VOR-DME
KOMAN FIX UL622 (AWY-HI) 23,500 ft / 7,163 m 43.98333˚ 26.21667˚ 38 nm 141 nm 145° / 145° -
O LBBG APT - 0 ft / 0 m 42.57013˚ 27.51524˚ 102 nm 243 nm 146° / 147° Burgas

Altitude Profile

Advertisement - Login to hide

Weather


0- 5 10 15 20 25 30 35+ Temperature / ° C

Clouds and Precipitation
Forecast for 2018-05-21 18:00 UTC. Updated 35 minutes ago

Ground ~20,000 ft ~40,000 ft Winds

LRSB

Details ICAO LRSB (SBZ)
Name SIBIU
Region Romania
Timezone Europe/Bucharest (UTC+3.0)
Stats Elevation 1,496 ft / 456 m (AMSL)
Location 45.785596° 24.091341°
Runways 1
Magnetic Variation 5.507° E

METAR

LRSB 211530Z 14015KT 9999 FEW038TCU BKN086 19/12 Q1018 NOSIG

Decode

TAF

TAF LRSB 211100Z 2112/2212 12012KT CAVOK TEMPO 2112/2117 VRB20G30KT 3000 TSRA BKN010 BKN030CB BECMG 2117/2119 VRB04KT

Decode

Departure Runways

ID Width Length Bearing (true) Bearing (mag) Surface Threshold Offset Overrun Length
09 98 ft / 30 m 6,500 ft / 1,981 m 91.07° 85.56° Concrete 0 ft / 0 m 0 ft / 0 m
27 98 ft / 30 m 6,500 ft / 1,981 m 271.09° 265.58° Concrete 492 ft / 150 m 0 ft / 0 m

LBBG

Details ICAO LBBG (BOJ)
Name Burgas
Region Bulgaria
Timezone Europe/Sofia (UTC+3.0)
Stats Elevation 135 ft / 41 m (AMSL)
Location 42.570130° 27.515240°
Runways 1
Magnetic Variation 5.547° E

METAR

LBBG 211530Z 09013KT 9999 SCT020 21/14 Q1018 NOSIG

Decode

TAF

TAF TAF LBBG 211100Z 2112/2212 09014KT 9999 FEW015 SCT045 PROB30 TEMPO 2112/2117 SHRA SCT013 FEW030CB BKN040 BECMG 2118/2120 03012KT TEMPO 2121/2205 BKN015

Decode

Destination Runways

ID Width Length Bearing (true) Bearing (mag) Surface Threshold Offset Overrun Length
04 148 ft / 45 m 10,502 ft / 3,201 m 44.28° 38.73° Concrete 0 ft / 0 m 190 ft / 58 m
22 148 ft / 45 m 10,502 ft / 3,201 m 224.29° 218.74° Concrete 0 ft / 0 m 190 ft / 58 m

Approach Navaids

Runway Type Ident Frequency Range Bearing (true) Bearing (mag) Slope Elevation
22 Localiser IBG 110.30 MHz 18 nm / 33 km 224.26° 218.72° - 135 ft / 41 m (AMSL)
22 Glidescope IBG 110.30 MHz 10 nm / 19 km 224.28° 218.74° 3.00° 135 ft / 41 m (AMSL)